Westerville, OH (43082)

11:28 PM EST on March 01, 2015 (GMT -0500)
Annehurst Village | Change Station
CLOSE
Current Station
Personal Weather Station
Location: Westerville, OH
Elevation: 853 ft
Nearby Weather Stations

Elev 853 ft 40.13 °N, 82.95 °W | Updated 10 minutes ago

Overcast
Overcast
29.8 °F
Feels Like 30 °F
N
2.2
Wind Variable Wind from WSW

Today
High -- | Low -- °F
--% Chance of Precip.
Yesterday
High -- | Low -- °F
Precip. -- in
7:05 AM 6:23 PM
Waxing Gibbous, 89% visible
Pressure 30.29 in
Visibility 5.0 miles
Clouds Mostly Cloudy 1300 ft
Overcast 3200 ft
Windchill 30 °F
Dew Point 29 °F
Humidity 96%
Rainfall 0.07 in
Snow Depth Not available.
UV 0 out of 12
Pollen .60 out of 12
Air Quality Not available.
Flu Activity Not available.
METAR KOSU 020353Z AUTO 29009KT 5SM BR BKN013 OVC032 M01/M03 A3025 RMK AO2 SLP256 T10111033

More Conditions Fewer Conditions

Pressure 30.29 in
Visibility 5.0 miles
Clouds Mostly Cloudy 1300 ft
Overcast 3200 ft
Windchill 30 °F
Dew Point 29 °F
Humidity 96%
Rainfall 0.07 in
Snow Depth Not available.
UV 0 out of 12
Pollen .60 out of 12
Air Quality Not available.
Flu Activity Not available.
METAR KOSU 020353Z AUTO 29009KT 5SM BR BKN013 OVC032 M01/M03 A3025 RMK AO2 SLP256 T10111033

More Conditions Fewer Conditions

10-Day Weather Forecast

Almanac

Astronomy

Mar. 01, 2015 Rise Set
Actual Time
Civil Twilight
Nautical Twilight
Astronomical Twilight
Moon
Length of Visible Light
Length of Day
Tomorrow will be .
, % of the Moon is Illuminated

Today's Extremes

State Highs State Lows

Community

WunderPhotos

Upload Photos

1,801,724 photos uploaded!

WunderBlogs® & News

Nearby

Air Quality

  Air Quality AQ Index Pollutant
Not available.

Snow Depth

Station Depth Elevation

Earthquake Activity

City Distance Mag. Time & Date
Minimum magnitude displayed is 2.5.

Coastal Water Temperatures

Place Temperature

Nearby Weather Stations